Ns Clipper — A8GW6 — position and weather

sailwx.info

Track history (hours):
 
Tides and Currents Weather Stations Pressure Air Temp Water Temp Dewpoint Dewpoint Depression Visibility Wind Speed Wind Dir Waves Ship Positions

Ns Clipper

Last reported at 2017-May-20 14:32 UTC. Time now 2017-May-27 07:59 UTC.
Position S 33°48' E 018°09'.

Length 244 m; draft 8 m.

Type: Ship. MMSI: 636012661.

Date/timePositionNaut miles runAvg speedWind from/ knotsBaromVisibWave heightAir tempDewpointWater temp
2017-May-20 14:32S 33°48' E 018°09'112.9
2017-May-20 14:25S 33°49' E 018°11'4 4.7
2017-May-20 13:30S 33°53' E 018°13'2 2.3
2017-May-20 12:42S 33°54' E 018°12'1 6.5
2017-May-20 12:30S 33°55' E 018°11'612.4
2017-May-20 12:00S 34°00' E 018°07'1113.8
2017-May-20 11:12S 34°11' E 018°06'314.8
2017-May-20 11:00S 34°14' E 018°06'1912.8
2017-May-20 09:32S 34°31' E 018°17'  
Track history (hours):
 
Tides and Currents Weather Stations Pressure Air Temp Water Temp Dewpoint Dewpoint Depression Visibility Wind Speed Wind Dir Waves Ship Positions

Ns Clipper

Last reported at 2017-May-20 14:32 UTC. Time now 2017-May-27 07:59 UTC.
Position S 33°48' E 018°09'.

Length 244 m; draft 8 m.

Type: Ship. MMSI: 636012661.

Date/timePositionNaut miles runAvg speedWind from/ knotsBaromVisibWave heightAir tempDewpointWater temp
2017-May-20 14:32S 33°48' E 018°09'112.9
2017-May-20 14:25S 33°49' E 018°11'4 4.7
2017-May-20 13:30S 33°53' E 018°13'2 2.3
2017-May-20 12:42S 33°54' E 018°12'1 6.5
2017-May-20 12:30S 33°55' E 018°11'612.4
2017-May-20 12:00S 34°00' E 018°07'1113.8
2017-May-20 11:12S 34°11' E 018°06'314.8
2017-May-20 11:00S 34°14' E 018°06'1912.8
2017-May-20 09:32S 34°31' E 018°17'  

Dump ship's entire track history